sensor_id;sensor_type;location;lat;lon;timestamp;P1;durP1;ratioP1;P2;durP2;ratioP2
21107;SDS011;10712;52.944;9.098;2022-09-13T00:01:46;3.92;;;3.53;;
21107;SDS011;10712;52.944;9.098;2022-09-13T00:04:12;3.97;;;3.50;;
21107;SDS011;10712;52.944;9.098;2022-09-13T00:06:38;4.20;;;3.53;;
21107;SDS011;10712;52.944;9.098;2022-09-13T00:09:04;4.93;;;4.40;;
21107;SDS011;10712;52.944;9.098;2022-09-13T00:11:30;12.18;;;3.72;;
21107;SDS011;10712;52.944;9.098;2022-09-13T00:13:56;4.75;;;3.90;;
21107;SDS011;10712;52.944;9.098;2022-09-13T00:16:24;5.72;;;3.95;;
21107;SDS011;10712;52.944;9.098;2022-09-13T00:18:53;5.65;;;4.35;;
21107;SDS011;10712;52.944;9.098;2022-09-13T00:21:20;4.55;;;3.92;;
21107;SDS011;10712;52.944;9.098;2022-09-13T00:23:49;8.18;;;4.20;;
21107;SDS011;10712;52.944;9.098;2022-09-13T00:26:18;4.32;;;3.92;;
21107;SDS011;10712;52.944;9.098;2022-09-13T00:28:48;4.60;;;4.20;;
21107;SDS011;10712;52.944;9.098;2022-09-13T00:31:16;5.10;;;4.28;;
21107;SDS011;10712;52.944;9.098;2022-09-13T00:33:43;4.30;;;3.92;;
21107;SDS011;10712;52.944;9.098;2022-09-13T00:36:10;5.43;;;4.35;;
21107;SDS011;10712;52.944;9.098;2022-09-13T00:38:38;5.07;;;4.18;;
21107;SDS011;10712;52.944;9.098;2022-09-13T00:41:05;4.60;;;4.15;;
21107;SDS011;10712;52.944;9.098;2022-09-13T00:49:13;6.10;;;5.15;;
21107;SDS011;10712;52.944;9.098;2022-09-13T00:51:54;4.90;;;4.40;;
21107;SDS011;10712;52.944;9.098;2022-09-13T00:54:28;5.78;;;4.55;;
21107;SDS011;10712;52.944;9.098;2022-09-13T00:57:04;6.30;;;4.70;;
21107;SDS011;10712;52.944;9.098;2022-09-13T00:59:34;5.40;;;3.90;;
21107;SDS011;10712;52.944;9.098;2022-09-13T01:02:09;7.85;;;4.45;;
21107;SDS011;10712;52.944;9.098;2022-09-13T01:04:36;6.05;;;5.35;;
21107;SDS011;10712;52.944;9.098;2022-09-13T01:07:03;7.88;;;6.15;;
21107;SDS011;10712;52.944;9.098;2022-09-13T01:09:34;8.68;;;5.45;;
21107;SDS011;10712;52.944;9.098;2022-09-13T01:14:45;6.10;;;5.20;;
21107;SDS011;10712;52.944;9.098;2022-09-13T01:17:12;7.05;;;6.28;;
21107;SDS011;10712;52.944;9.098;2022-09-13T01:19:38;6.88;;;5.63;;
21107;SDS011;10712;52.944;9.098;2022-09-13T01:40:04;11.20;;;7.80;;
21107;SDS011;10712;52.944;9.098;2022-09-13T01:43:30;10.85;;;7.88;;
21107;SDS011;10712;52.944;9.098;2022-09-13T01:49:15;6.85;;;6.15;;
21107;SDS011;10712;52.944;9.098;2022-09-13T01:51:58;11.23;;;7.63;;
21107;SDS011;10712;52.944;9.098;2022-09-13T01:54:44;8.25;;;7.32;;
21107;SDS011;10712;52.944;9.098;2022-09-13T01:57:31;8.98;;;8.07;;
21107;SDS011;10712;52.944;9.098;2022-09-13T02:02:53;10.73;;;7.50;;
21107;SDS011;10712;52.944;9.098;2022-09-13T02:05:42;8.33;;;7.47;;
21107;SDS011;10712;52.944;9.098;2022-09-13T02:08:25;9.85;;;7.75;;
21107;SDS011;10712;52.944;9.098;2022-09-13T02:11:07;9.07;;;7.80;;
21107;SDS011;10712;52.944;9.098;2022-09-13T02:13:41;8.52;;;7.57;;
21107;SDS011;10712;52.944;9.098;2022-09-13T02:16:14;9.40;;;7.93;;
21107;SDS011;10712;52.944;9.098;2022-09-13T02:18:53;9.55;;;8.48;;
21107;SDS011;10712;52.944;9.098;2022-09-13T02:21:28;9.57;;;7.93;;
21107;SDS011;10712;52.944;9.098;2022-09-13T02:24:07;7.78;;;6.97;;
21107;SDS011;10712;52.944;9.098;2022-09-13T02:26:58;8.48;;;6.53;;
21107;SDS011;10712;52.944;9.098;2022-09-13T02:29:32;8.75;;;7.60;;
21107;SDS011;10712;52.944;9.098;2022-09-13T02:32:20;7.50;;;6.40;;
21107;SDS011;10712;52.944;9.098;2022-09-13T02:35:00;9.70;;;7.20;;
21107;SDS011;10712;52.944;9.098;2022-09-13T02:37:48;10.38;;;7.80;;
21107;SDS011;10712;52.944;9.098;2022-09-13T02:40:29;11.43;;;7.63;;
21107;SDS011;10712;52.944;9.098;2022-09-13T02:43:07;11.27;;;7.93;;
21107;SDS011;10712;52.944;9.098;2022-09-13T02:45:48;10.30;;;8.05;;
21107;SDS011;10712;52.944;9.098;2022-09-13T02:48:57;8.77;;;7.88;;
21107;SDS011;10712;52.944;9.098;2022-09-13T02:57:25;8.57;;;7.68;;
21107;SDS011;10712;52.944;9.098;2022-09-13T03:00:00;8.90;;;7.30;;
21107;SDS011;10712;52.944;9.098;2022-09-13T03:02:28;10.80;;;8.63;;
21107;SDS011;10712;52.944;9.098;2022-09-13T03:04:58;9.55;;;7.53;;
21107;SDS011;10712;52.944;9.098;2022-09-13T03:07:26;9.70;;;8.70;;
21107;SDS011;10712;52.944;9.098;2022-09-13T03:09:53;11.57;;;9.20;;
21107;SDS011;10712;52.944;9.098;2022-09-13T03:21:05;11.85;;;9.82;;
21107;SDS011;10712;52.944;9.098;2022-09-13T03:26:55;11.30;;;10.18;;
21107;SDS011;10712;52.944;9.098;2022-09-13T03:32:35;13.50;;;10.48;;
21107;SDS011;10712;52.944;9.098;2022-09-13T03:38:44;11.23;;;9.77;;
21107;SDS011;10712;52.944;9.098;2022-09-13T03:41:21;14.93;;;10.55;;
21107;SDS011;10712;52.944;9.098;2022-09-13T03:43:56;11.90;;;10.65;;
21107;SDS011;10712;52.944;9.098;2022-09-13T03:49:03;12.30;;;10.00;;
21107;SDS011;10712;52.944;9.098;2022-09-13T03:51:34;12.60;;;10.10;;
21107;SDS011;10712;52.944;9.098;2022-09-13T03:54:03;12.68;;;10.52;;
21107;SDS011;10712;52.944;9.098;2022-09-13T03:56:38;12.13;;;10.93;;
21107;SDS011;10712;52.944;9.098;2022-09-13T03:59:04;14.70;;;11.18;;
21107;SDS011;10712;52.944;9.098;2022-09-13T04:01:30;13.30;;;11.93;;
21107;SDS011;10712;52.944;9.098;2022-09-13T04:03:56;13.20;;;11.82;;
21107;SDS011;10712;52.944;9.098;2022-09-13T04:06:21;14.10;;;11.48;;
21107;SDS011;10712;52.944;9.098;2022-09-13T04:08:47;13.88;;;10.77;;
21107;SDS011;10712;52.944;9.098;2022-09-13T04:11:13;12.52;;;11.23;;
21107;SDS011;10712;52.944;9.098;2022-09-13T04:13:39;12.55;;;11.25;;
21107;SDS011;10712;52.944;9.098;2022-09-13T04:16:06;15.38;;;12.13;;
21107;SDS011;10712;52.944;9.098;2022-09-13T04:18:32;12.45;;;10.80;;
21107;SDS011;10712;52.944;9.098;2022-09-13T04:20:59;13.82;;;10.43;;
21107;SDS011;10712;52.944;9.098;2022-09-13T04:23:27;13.73;;;11.70;;
21107;SDS011;10712;52.944;9.098;2022-09-13T04:25:54;14.13;;;12.38;;
21107;SDS011;10712;52.944;9.098;2022-09-13T04:28:25;13.95;;;12.07;;
21107;SDS011;10712;52.944;9.098;2022-09-13T04:30:51;14.70;;;12.07;;
21107;SDS011;10712;52.944;9.098;2022-09-13T04:33:17;17.25;;;13.10;;
21107;SDS011;10712;52.944;9.098;2022-09-13T04:35:44;14.55;;;13.07;;
21107;SDS011;10712;52.944;9.098;2022-09-13T04:38:10;11.07;;;10.00;;
21107;SDS011;10712;52.944;9.098;2022-09-13T04:40:37;13.20;;;11.85;;
21107;SDS011;10712;52.944;9.098;2022-09-13T04:43:03;14.68;;;12.20;;
21107;SDS011;10712;52.944;9.098;2022-09-13T04:45:29;12.43;;;11.13;;
21107;SDS011;10712;52.944;9.098;2022-09-13T04:47:55;10.43;;;9.43;;
21107;SDS011;10712;52.944;9.098;2022-09-13T04:50:21;14.20;;;11.27;;
21107;SDS011;10712;52.944;9.098;2022-09-13T04:52:49;15.95;;;12.52;;
21107;SDS011;10712;52.944;9.098;2022-09-13T04:55:19;14.35;;;11.68;;
21107;SDS011;10712;52.944;9.098;2022-09-13T04:57:45;12.40;;;11.13;;
21107;SDS011;10712;52.944;9.098;2022-09-13T05:00:11;16.67;;;12.68;;
21107;SDS011;10712;52.944;9.098;2022-09-13T05:02:37;15.30;;;13.45;;
21107;SDS011;10712;52.944;9.098;2022-09-13T05:05:02;19.50;;;15.43;;
21107;SDS011;10712;52.944;9.098;2022-09-13T05:07:29;17.30;;;13.48;;
21107;SDS011;10712;52.944;9.098;2022-09-13T05:09:54;18.08;;;16.00;;
21107;SDS011;10712;52.944;9.098;2022-09-13T05:12:20;18.17;;;15.18;;
21107;SDS011;10712;52.944;9.098;2022-09-13T05:14:46;20.58;;;14.63;;
21107;SDS011;10712;52.944;9.098;2022-09-13T05:17:12;18.00;;;15.23;;
21107;SDS011;10712;52.944;9.098;2022-09-13T05:19:37;21.00;;;15.38;;
21107;SDS011;10712;52.944;9.098;2022-09-13T05:22:03;17.30;;;14.18;;
21107;SDS011;10712;52.944;9.098;2022-09-13T05:24:29;20.27;;;15.05;;
21107;SDS011;10712;52.944;9.098;2022-09-13T05:26:55;16.67;;;14.23;;
21107;SDS011;10712;52.944;9.098;2022-09-13T05:29:20;15.68;;;13.45;;
21107;SDS011;10712;52.944;9.098;2022-09-13T05:31:46;16.42;;;14.57;;
21107;SDS011;10712;52.944;9.098;2022-09-13T05:34:14;14.70;;;11.50;;
21107;SDS011;10712;52.944;9.098;2022-09-13T05:36:50;15.52;;;12.68;;
21107;SDS011;10712;52.944;9.098;2022-09-13T05:39:22;15.02;;;13.07;;
21107;SDS011;10712;52.944;9.098;2022-09-13T05:41:49;17.23;;;13.45;;
21107;SDS011;10712;52.944;9.098;2022-09-13T05:44:14;17.65;;;13.60;;
21107;SDS011;10712;52.944;9.098;2022-09-13T05:46:40;16.88;;;13.57;;
21107;SDS011;10712;52.944;9.098;2022-09-13T05:49:07;15.88;;;12.82;;
21107;SDS011;10712;52.944;9.098;2022-09-13T05:51:32;15.38;;;13.30;;
21107;SDS011;10712;52.944;9.098;2022-09-13T05:53:58;14.82;;;13.10;;
21107;SDS011;10712;52.944;9.098;2022-09-13T05:56:25;23.40;;;14.80;;
21107;SDS011;10712;52.944;9.098;2022-09-13T05:58:54;16.63;;;14.75;;
21107;SDS011;10712;52.944;9.098;2022-09-13T06:01:21;16.38;;;13.43;;
21107;SDS011;10712;52.944;9.098;2022-09-13T06:03:50;19.00;;;15.40;;
21107;SDS011;10712;52.944;9.098;2022-09-13T06:06:20;18.95;;;15.52;;
21107;SDS011;10712;52.944;9.098;2022-09-13T06:08:47;16.65;;;14.40;;
21107;SDS011;10712;52.944;9.098;2022-09-13T06:11:17;18.30;;;15.40;;
21107;SDS011;10712;52.944;9.098;2022-09-13T06:13:44;20.65;;;16.10;;
21107;SDS011;10712;52.944;9.098;2022-09-13T06:16:10;18.58;;;15.75;;
21107;SDS011;10712;52.944;9.098;2022-09-13T06:18:39;22.92;;;15.95;;
21107;SDS011;10712;52.944;9.098;2022-09-13T06:21:05;17.70;;;14.07;;
21107;SDS011;10712;52.944;9.098;2022-09-13T06:23:35;18.70;;;15.63;;
21107;SDS011;10712;52.944;9.098;2022-09-13T06:26:02;15.90;;;14.30;;
21107;SDS011;10712;52.944;9.098;2022-09-13T06:28:34;18.92;;;16.85;;
21107;SDS011;10712;52.944;9.098;2022-09-13T06:31:05;17.15;;;13.60;;
21107;SDS011;10712;52.944;9.098;2022-09-13T06:33:37;17.48;;;14.20;;
21107;SDS011;10712;52.944;9.098;2022-09-13T06:36:10;16.95;;;14.60;;
21107;SDS011;10712;52.944;9.098;2022-09-13T06:38:39;21.23;;;17.63;;
21107;SDS011;10712;52.944;9.098;2022-09-13T06:41:11;25.17;;;19.27;;
21107;SDS011;10712;52.944;9.098;2022-09-13T06:43:40;23.40;;;19.10;;
21107;SDS011;10712;52.944;9.098;2022-09-13T06:46:07;23.40;;;19.30;;
21107;SDS011;10712;52.944;9.098;2022-09-13T06:48:36;23.70;;;19.27;;
21107;SDS011;10712;52.944;9.098;2022-09-13T06:51:07;23.30;;;19.48;;
21107;SDS011;10712;52.944;9.098;2022-09-13T06:53:36;21.40;;;19.10;;
21107;SDS011;10712;52.944;9.098;2022-09-13T06:56:06;25.50;;;18.77;;
21107;SDS011;10712;52.944;9.098;2022-09-13T06:58:35;23.52;;;18.73;;
21107;SDS011;10712;52.944;9.098;2022-09-13T07:03:47;23.73;;;18.80;;
21107;SDS011;10712;52.944;9.098;2022-09-13T07:06:16;22.38;;;18.77;;
21107;SDS011;10712;52.944;9.098;2022-09-13T07:08:47;26.48;;;21.05;;
21107;SDS011;10712;52.944;9.098;2022-09-13T07:11:15;22.63;;;17.35;;
21107;SDS011;10712;52.944;9.098;2022-09-13T07:13:53;19.92;;;16.92;;
21107;SDS011;10712;52.944;9.098;2022-09-13T07:16:22;22.25;;;18.13;;
21107;SDS011;10712;52.944;9.098;2022-09-13T07:18:58;26.25;;;21.83;;
21107;SDS011;10712;52.944;9.098;2022-09-13T07:21:27;19.98;;;17.75;;
21107;SDS011;10712;52.944;9.098;2022-09-13T07:23:54;22.25;;;17.45;;
21107;SDS011;10712;52.944;9.098;2022-09-13T07:26:21;24.95;;;19.85;;
21107;SDS011;10712;52.944;9.098;2022-09-13T07:28:48;21.05;;;18.85;;
21107;SDS011;10712;52.944;9.098;2022-09-13T07:31:22;28.42;;;20.98;;
21107;SDS011;10712;52.944;9.098;2022-09-13T07:33:56;26.60;;;21.13;;
21107;SDS011;10712;52.944;9.098;2022-09-13T07:36:25;24.88;;;20.95;;
21107;SDS011;10712;52.944;9.098;2022-09-13T07:38:54;23.90;;;19.13;;
21107;SDS011;10712;52.944;9.098;2022-09-13T07:41:23;24.77;;;19.67;;
21107;SDS011;10712;52.944;9.098;2022-09-13T07:43:51;24.63;;;18.30;;
21107;SDS011;10712;52.944;9.098;2022-09-13T07:46:19;20.70;;;17.77;;
21107;SDS011;10712;52.944;9.098;2022-09-13T07:48:51;19.08;;;15.70;;
21107;SDS011;10712;52.944;9.098;2022-09-13T07:51:20;18.23;;;15.20;;
21107;SDS011;10712;52.944;9.098;2022-09-13T07:53:54;21.10;;;17.90;;
21107;SDS011;10712;52.944;9.098;2022-09-13T07:56:24;20.20;;;16.67;;
21107;SDS011;10712;52.944;9.098;2022-09-13T07:58:57;21.20;;;15.48;;
21107;SDS011;10712;52.944;9.098;2022-09-13T08:01:27;19.23;;;16.38;;
21107;SDS011;10712;52.944;9.098;2022-09-13T08:04:03;23.17;;;19.92;;
21107;SDS011;10712;52.944;9.098;2022-09-13T08:06:33;21.90;;;18.55;;
21107;SDS011;10712;52.944;9.098;2022-09-13T08:09:01;25.48;;;20.52;;
21107;SDS011;10712;52.944;9.098;2022-09-13T08:11:30;26.85;;;20.95;;
21107;SDS011;10712;52.944;9.098;2022-09-13T08:16:27;23.05;;;18.85;;
21107;SDS011;10712;52.944;9.098;2022-09-13T08:18:55;23.73;;;19.42;;
21107;SDS011;10712;52.944;9.098;2022-09-13T08:21:24;25.00;;;18.17;;
21107;SDS011;10712;52.944;9.098;2022-09-13T08:23:56;24.40;;;19.58;;
21107;SDS011;10712;52.944;9.098;2022-09-13T08:26:24;23.60;;;19.27;;
21107;SDS011;10712;52.944;9.098;2022-09-13T08:28:56;24.80;;;19.20;;
21107;SDS011;10712;52.944;9.098;2022-09-13T08:31:25;18.30;;;15.77;;
21107;SDS011;10712;52.944;9.098;2022-09-13T08:33:52;21.73;;;17.02;;
21107;SDS011;10712;52.944;9.098;2022-09-13T08:36:20;20.92;;;16.40;;
21107;SDS011;10712;52.944;9.098;2022-09-13T08:38:49;17.63;;;14.88;;
21107;SDS011;10712;52.944;9.098;2022-09-13T08:43:58;21.13;;;15.52;;
21107;SDS011;10712;52.944;9.098;2022-09-13T08:46:39;18.00;;;13.23;;
21107;SDS011;10712;52.944;9.098;2022-09-13T08:51:52;17.05;;;13.50;;
21107;SDS011;10712;52.944;9.098;2022-09-13T08:54:22;16.05;;;12.90;;
21107;SDS011;10712;52.944;9.098;2022-09-13T08:56:55;16.60;;;13.30;;
21107;SDS011;10712;52.944;9.098;2022-09-13T09:05:17;18.95;;;13.93;;
21107;SDS011;10712;52.944;9.098;2022-09-13T09:07:56;16.27;;;13.75;;
21107;SDS011;10712;52.944;9.098;2022-09-13T09:10:29;14.05;;;11.13;;
21107;SDS011;10712;52.944;9.098;2022-09-13T09:13:12;14.68;;;12.20;;
21107;SDS011;10712;52.944;9.098;2022-09-13T09:16:24;13.95;;;11.88;;
21107;SDS011;10712;52.944;9.098;2022-09-13T09:19:12;13.43;;;10.95;;
21107;SDS011;10712;52.944;9.098;2022-09-13T09:22:01;14.25;;;10.43;;
21107;SDS011;10712;52.944;9.098;2022-09-13T09:24:35;10.38;;;9.23;;
21107;SDS011;10712;52.944;9.098;2022-09-13T09:27:10;15.57;;;9.55;;
21107;SDS011;10712;52.944;9.098;2022-09-13T09:29:43;10.10;;;7.68;;
21107;SDS011;10712;52.944;9.098;2022-09-13T09:38:38;9.57;;;3.72;;
21107;SDS011;10712;52.944;9.098;2022-09-13T09:41:12;8.82;;;2.78;;
21107;SDS011;10712;52.944;9.098;2022-09-13T09:46:54;9.23;;;1.60;;
21107;SDS011;10712;52.944;9.098;2022-09-13T09:49:50;5.25;;;1.52;;
21107;SDS011;10712;52.944;9.098;2022-09-13T09:58:12;3.35;;;1.17;;
21107;SDS011;10712;52.944;9.098;2022-09-13T10:00:52;4.43;;;1.27;;
21107;SDS011;10712;52.944;9.098;2022-09-13T10:03:25;3.20;;;1.35;;
21107;SDS011;10712;52.944;9.098;2022-09-13T10:08:46;4.18;;;1.67;;
21107;SDS011;10712;52.944;9.098;2022-09-13T10:11:29;4.50;;;1.35;;
21107;SDS011;10712;52.944;9.098;2022-09-13T10:14:26;3.47;;;1.50;;
21107;SDS011;10712;52.944;9.098;2022-09-13T10:17:05;4.43;;;0.95;;
21107;SDS011;10712;52.944;9.098;2022-09-13T10:22:20;3.88;;;1.33;;
21107;SDS011;10712;52.944;9.098;2022-09-13T10:24:47;3.05;;;1.52;;
21107;SDS011;10712;52.944;9.098;2022-09-13T10:30:07;5.75;;;1.60;;
21107;SDS011;10712;52.944;9.098;2022-09-13T10:33:06;5.70;;;1.50;;
21107;SDS011;10712;52.944;9.098;2022-09-13T10:36:06;3.28;;;1.20;;
21107;SDS011;10712;52.944;9.098;2022-09-13T10:38:55;4.78;;;1.73;;
21107;SDS011;10712;52.944;9.098;2022-09-13T10:41:27;7.13;;;1.52;;
21107;SDS011;10712;52.944;9.098;2022-09-13T10:44:00;8.32;;;1.83;;
21107;SDS011;10712;52.944;9.098;2022-09-13T10:46:33;5.47;;;1.48;;
21107;SDS011;10712;52.944;9.098;2022-09-13T10:49:04;3.47;;;1.27;;
21107;SDS011;10712;52.944;9.098;2022-09-13T10:51:31;4.82;;;1.30;;
21107;SDS011;10712;52.944;9.098;2022-09-13T10:56:39;2.47;;;0.88;;
21107;SDS011;10712;52.944;9.098;2022-09-13T11:11:00;2.88;;;1.08;;
21107;SDS011;10712;52.944;9.098;2022-09-13T11:13:40;4.50;;;0.90;;
21107;SDS011;10712;52.944;9.098;2022-09-13T11:16:28;1.77;;;0.75;;
21107;SDS011;10712;52.944;9.098;2022-09-13T11:19:15;5.68;;;1.20;;
21107;SDS011;10712;52.944;9.098;2022-09-13T11:28:02;7.43;;;0.90;;
21107;SDS011;10712;52.944;9.098;2022-09-13T11:46:18;5.30;;;1.02;;
21107;SDS011;10712;52.944;9.098;2022-09-13T12:01:02;4.22;;;0.75;;
21107;SDS011;10712;52.944;9.098;2022-09-13T12:03:20;3.50;;;0.50;;
21107;SDS011;10712;52.944;9.098;2022-09-13T12:11:35;6.35;;;0.95;;
21107;SDS011;10712;52.944;9.098;2022-09-13T12:14:16;2.70;;;0.90;;
21107;SDS011;10712;52.944;9.098;2022-09-13T12:16:54;1.90;;;0.65;;
21107;SDS011;10712;52.944;9.098;2022-09-13T12:19:53;4.07;;;0.88;;
21107;SDS011;10712;52.944;9.098;2022-09-13T12:22:21;1.92;;;0.65;;
21107;SDS011;10712;52.944;9.098;2022-09-13T12:24:54;2.83;;;0.70;;
21107;SDS011;10712;52.944;9.098;2022-09-13T12:30:15;6.55;;;1.48;;
21107;SDS011;10712;52.944;9.098;2022-09-13T12:32:48;2.97;;;1.05;;
21107;SDS011;10712;52.944;9.098;2022-09-13T12:38:16;4.97;;;0.52;;
21107;SDS011;10712;52.944;9.098;2022-09-13T12:49:45;6.50;;;0.73;;
21107;SDS011;10712;52.944;9.098;2022-09-13T13:03:22;3.83;;;0.70;;
21107;SDS011;10712;52.944;9.098;2022-09-13T13:06:08;5.07;;;0.75;;
21107;SDS011;10712;52.944;9.098;2022-09-13T13:08:51;6.03;;;0.73;;
21107;SDS011;10712;52.944;9.098;2022-09-13T13:11:24;1.45;;;0.30;;
21107;SDS011;10712;52.944;9.098;2022-09-13T13:14:04;3.83;;;0.82;;
21107;SDS011;10712;52.944;9.098;2022-09-13T13:16:37;2.08;;;0.60;;
21107;SDS011;10712;52.944;9.098;2022-09-13T13:19:31;4.28;;;0.47;;
21107;SDS011;10712;52.944;9.098;2022-09-13T13:25:29;5.15;;;0.85;;
21107;SDS011;10712;52.944;9.098;2022-09-13T13:33:51;4.13;;;1.00;;
21107;SDS011;10712;52.944;9.098;2022-09-13T13:39:08;5.15;;;0.70;;
21107;SDS011;10712;52.944;9.098;2022-09-13T13:41:57;2.90;;;0.60;;
21107;SDS011;10712;52.944;9.098;2022-09-13T13:46:49;3.60;;;0.68;;
21107;SDS011;10712;52.944;9.098;2022-09-13T14:00:14;3.85;;;0.65;;
21107;SDS011;10712;52.944;9.098;2022-09-13T14:02:56;4.32;;;0.65;;
21107;SDS011;10712;52.944;9.098;2022-09-13T14:08:27;3.92;;;0.60;;
21107;SDS011;10712;52.944;9.098;2022-09-13T14:11:45;2.40;;;0.68;;
21107;SDS011;10712;52.944;9.098;2022-09-13T14:20:55;1.73;;;0.50;;
21107;SDS011;10712;52.944;9.098;2022-09-13T14:23:27;4.20;;;0.52;;
21107;SDS011;10712;52.944;9.098;2022-09-13T14:25:54;2.08;;;0.82;;
21107;SDS011;10712;52.944;9.098;2022-09-13T14:28:23;5.95;;;0.75;;
21107;SDS011;10712;52.944;9.098;2022-09-13T14:30:56;7.85;;;0.90;;
21107;SDS011;10712;52.944;9.098;2022-09-13T14:33:31;3.22;;;0.63;;
21107;SDS011;10712;52.944;9.098;2022-09-13T14:36:05;4.80;;;0.98;;
21107;SDS011;10712;52.944;9.098;2022-09-13T14:38:45;4.15;;;0.50;;
21107;SDS011;10712;52.944;9.098;2022-09-13T14:41:34;3.80;;;0.60;;
21107;SDS011;10712;52.944;9.098;2022-09-13T14:44:16;5.50;;;0.90;;
21107;SDS011;10712;52.944;9.098;2022-09-13T14:46:48;6.07;;;0.50;;
21107;SDS011;10712;52.944;9.098;2022-09-13T14:49:24;3.03;;;0.73;;
21107;SDS011;10712;52.944;9.098;2022-09-13T14:52:07;2.78;;;0.52;;
21107;SDS011;10712;52.944;9.098;2022-09-13T14:54:44;1.70;;;0.70;;
21107;SDS011;10712;52.944;9.098;2022-09-13T14:57:28;3.40;;;0.50;;
21107;SDS011;10712;52.944;9.098;2022-09-13T15:00:06;2.60;;;0.32;;
21107;SDS011;10712;52.944;9.098;2022-09-13T15:02:45;3.13;;;0.63;;
21107;SDS011;10712;52.944;9.098;2022-09-13T15:05:38;4.60;;;1.02;;
21107;SDS011;10712;52.944;9.098;2022-09-13T15:10:58;7.07;;;0.60;;
21107;SDS011;10712;52.944;9.098;2022-09-13T15:13:30;4.30;;;0.98;;
21107;SDS011;10712;52.944;9.098;2022-09-13T15:15:57;4.20;;;0.85;;
21107;SDS011;10712;52.944;9.098;2022-09-13T15:18:32;4.80;;;0.93;;
21107;SDS011;10712;52.944;9.098;2022-09-13T15:20:59;4.05;;;0.73;;
21107;SDS011;10712;52.944;9.098;2022-09-13T15:23:31;3.10;;;1.02;;
21107;SDS011;10712;52.944;9.098;2022-09-13T15:26:22;4.25;;;0.65;;
21107;SDS011;10712;52.944;9.098;2022-09-13T15:28:51;4.47;;;0.95;;
21107;SDS011;10712;52.944;9.098;2022-09-13T15:36:45;2.33;;;0.45;;
21107;SDS011;10712;52.944;9.098;2022-09-13T15:39:15;4.78;;;0.60;;
21107;SDS011;10712;52.944;9.098;2022-09-13T15:41:53;3.17;;;0.75;;
21107;SDS011;10712;52.944;9.098;2022-09-13T15:44:22;5.82;;;0.88;;
21107;SDS011;10712;52.944;9.098;2022-09-13T15:46:49;6.60;;;0.93;;
21107;SDS011;10712;52.944;9.098;2022-09-13T15:49:21;6.25;;;0.82;;
21107;SDS011;10712;52.944;9.098;2022-09-13T15:51:55;8.35;;;0.77;;
21107;SDS011;10712;52.944;9.098;2022-09-13T15:54:31;5.97;;;0.73;;
21107;SDS011;10712;52.944;9.098;2022-09-13T15:57:09;3.95;;;0.88;;
21107;SDS011;10712;52.944;9.098;2022-09-13T15:59:52;5.13;;;0.68;;
21107;SDS011;10712;52.944;9.098;2022-09-13T16:02:24;4.75;;;0.63;;
21107;SDS011;10712;52.944;9.098;2022-09-13T16:04:55;4.97;;;0.90;;
21107;SDS011;10712;52.944;9.098;2022-09-13T16:07:21;3.55;;;0.68;;
21107;SDS011;10712;52.944;9.098;2022-09-13T16:09:49;4.80;;;0.70;;
21107;SDS011;10712;52.944;9.098;2022-09-13T16:12:17;3.63;;;0.80;;
21107;SDS011;10712;52.944;9.098;2022-09-13T16:14:43;4.45;;;0.52;;
21107;SDS011;10712;52.944;9.098;2022-09-13T16:17:15;4.80;;;0.95;;
21107;SDS011;10712;52.944;9.098;2022-09-13T16:19:46;7.15;;;1.92;;
21107;SDS011;10712;52.944;9.098;2022-09-13T16:22:12;5.40;;;0.93;;
21107;SDS011;10712;52.944;9.098;2022-09-13T16:24:38;6.50;;;0.80;;
21107;SDS011;10712;52.944;9.098;2022-09-13T16:27:04;9.80;;;1.55;;
21107;SDS011;10712;52.944;9.098;2022-09-13T16:29:30;10.13;;;1.20;;
21107;SDS011;10712;52.944;9.098;2022-09-13T16:31:56;5.80;;;0.90;;
21107;SDS011;10712;52.944;9.098;2022-09-13T16:34:24;7.22;;;1.00;;
21107;SDS011;10712;52.944;9.098;2022-09-13T16:36:51;7.22;;;1.13;;
21107;SDS011;10712;52.944;9.098;2022-09-13T16:39:17;5.95;;;1.35;;
21107;SDS011;10712;52.944;9.098;2022-09-13T16:41:44;9.18;;;1.63;;
21107;SDS011;10712;52.944;9.098;2022-09-13T16:44:10;4.95;;;0.90;;
21107;SDS011;10712;52.944;9.098;2022-09-13T16:46:36;5.43;;;0.95;;
21107;SDS011;10712;52.944;9.098;2022-09-13T16:49:02;8.93;;;1.60;;
21107;SDS011;10712;52.944;9.098;2022-09-13T16:51:28;6.40;;;1.13;;
21107;SDS011;10712;52.944;9.098;2022-09-13T16:53:54;7.13;;;1.50;;
21107;SDS011;10712;52.944;9.098;2022-09-13T16:56:21;7.88;;;0.98;;
21107;SDS011;10712;52.944;9.098;2022-09-13T16:58:50;8.98;;;1.00;;
21107;SDS011;10712;52.944;9.098;2022-09-13T17:01:21;12.10;;;1.05;;
21107;SDS011;10712;52.944;9.098;2022-09-13T17:03:52;9.75;;;1.25;;
21107;SDS011;10712;52.944;9.098;2022-09-13T17:06:19;5.22;;;1.20;;
21107;SDS011;10712;52.944;9.098;2022-09-13T17:08:54;9.43;;;1.15;;
21107;SDS011;10712;52.944;9.098;2022-09-13T17:11:27;10.23;;;1.65;;
21107;SDS011;10712;52.944;9.098;2022-09-13T17:13:57;7.15;;;1.27;;
21107;SDS011;10712;52.944;9.098;2022-09-13T17:16:28;7.07;;;1.60;;
21107;SDS011;10712;52.944;9.098;2022-09-13T17:19:02;5.47;;;1.13;;
21107;SDS011;10712;52.944;9.098;2022-09-13T17:21:32;4.57;;;1.20;;
21107;SDS011;10712;52.944;9.098;2022-09-13T17:23:59;8.70;;;0.95;;
21107;SDS011;10712;52.944;9.098;2022-09-13T17:26:26;4.53;;;0.80;;
21107;SDS011;10712;52.944;9.098;2022-09-13T17:28:51;6.00;;;1.15;;
21107;SDS011;10712;52.944;9.098;2022-09-13T17:31:17;7.20;;;0.93;;
21107;SDS011;10712;52.944;9.098;2022-09-13T17:33:44;6.53;;;1.00;;
21107;SDS011;10712;52.944;9.098;2022-09-13T17:36:17;4.53;;;0.70;;
21107;SDS011;10712;52.944;9.098;2022-09-13T17:38:45;5.68;;;1.20;;
21107;SDS011;10712;52.944;9.098;2022-09-13T17:41:15;7.75;;;0.88;;
21107;SDS011;10712;52.944;9.098;2022-09-13T17:43:43;6.25;;;0.93;;
21107;SDS011;10712;52.944;9.098;2022-09-13T17:46:11;8.00;;;1.15;;
21107;SDS011;10712;52.944;9.098;2022-09-13T17:48:40;4.60;;;0.90;;
21107;SDS011;10712;52.944;9.098;2022-09-13T17:51:09;3.25;;;0.70;;
21107;SDS011;10712;52.944;9.098;2022-09-13T17:53:46;6.55;;;1.35;;
21107;SDS011;10712;52.944;9.098;2022-09-13T17:56:16;8.15;;;0.90;;
21107;SDS011;10712;52.944;9.098;2022-09-13T17:58:44;7.35;;;0.70;;
21107;SDS011;10712;52.944;9.098;2022-09-13T18:01:10;3.83;;;0.65;;
21107;SDS011;10712;52.944;9.098;2022-09-13T18:03:36;7.15;;;1.10;;
21107;SDS011;10712;52.944;9.098;2022-09-13T18:06:03;6.38;;;0.80;;
21107;SDS011;10712;52.944;9.098;2022-09-13T18:08:32;5.30;;;1.15;;
21107;SDS011;10712;52.944;9.098;2022-09-13T18:11:05;3.10;;;0.63;;
21107;SDS011;10712;52.944;9.098;2022-09-13T18:13:34;4.45;;;1.60;;
21107;SDS011;10712;52.944;9.098;2022-09-13T18:16:03;3.10;;;0.82;;
21107;SDS011;10712;52.944;9.098;2022-09-13T18:21:00;5.35;;;0.60;;
21107;SDS011;10712;52.944;9.098;2022-09-13T18:23:27;2.17;;;0.95;;
21107;SDS011;10712;52.944;9.098;2022-09-13T18:25:59;9.98;;;1.13;;
21107;SDS011;10712;52.944;9.098;2022-09-13T18:28:32;5.55;;;1.02;;
21107;SDS011;10712;52.944;9.098;2022-09-13T18:31:00;4.03;;;0.90;;
21107;SDS011;10712;52.944;9.098;2022-09-13T18:33:32;2.90;;;0.65;;
21107;SDS011;10712;52.944;9.098;2022-09-13T18:36:36;5.18;;;0.88;;
21107;SDS011;10712;52.944;9.098;2022-09-13T18:41:42;2.38;;;0.70;;
21107;SDS011;10712;52.944;9.098;2022-09-13T18:44:12;6.60;;;1.08;;
21107;SDS011;10712;52.944;9.098;2022-09-13T18:46:41;3.38;;;0.70;;
21107;SDS011;10712;52.944;9.098;2022-09-13T18:49:08;3.60;;;0.80;;
21107;SDS011;10712;52.944;9.098;2022-09-13T18:56:36;3.42;;;0.93;;
21107;SDS011;10712;52.944;9.098;2022-09-13T18:59:03;2.85;;;0.70;;
21107;SDS011;10712;52.944;9.098;2022-09-13T19:01:34;9.40;;;0.93;;